Home   Weather   Niger   Niamey   Past weeks
Flag for Niger

Past Weather in Niamey, Niger — July 2019

Currently: 97 °F. Sunny. (Weather station: Niamey-Aero, Niger). See more current weather

July 2019 Weather in Niamey — Graph

°F

High & Low Weather Summary for July 2019

 TemperatureHumidityPressure
High104 °F (Jul 1, 3:00 pm)100% (Jul 8, 7:00 pm)30.07 "Hg (Jul 8, 7:00 pm)
Low72 °F (Jul 22, 6:00 am)17% (Jul 7, 5:00 pm)29.71 "Hg (Jul 2, 5:00 pm)
Average85 °F62%29.88 "Hg
* Reported Jul 1 12:00 am — Jul 31 11:00 pm, Niamey. Weather by CustomWeather, © 2022

Note: Actual official high and low records may vary slightly from our data, if they occured in-between our weather recording intervals... More about our weather records

Niamey Weather History for July 1, 2019

Scroll right to see more
 ConditionsComfort  
Time TempWeatherWind HumidityBarometerVisibility
12:00 am
Mon, Jul 1
93 °FClear.3 mph41%29.89 "Hg10 mi
1:00 am91 °FClear.5 mph44%29.89 "Hg10 mi
2:00 am91 °FClear.5 mph44%29.89 "Hg10 mi
3:00 am90 °FClear.6 mph49%29.86 "Hg10 mi
4:00 am88 °FClear.7 mph55%29.86 "Hg10 mi
5:00 am88 °FClear.8 mph55%29.86 "Hg5 mi
6:00 am86 °FClear.7 mph59%29.86 "Hg5 mi
7:00 am86 °FSunny.9 mph59%29.86 "Hg10 mi
8:00 am88 °FSunny.8 mph55%29.89 "Hg10 mi
9:00 am91 °FSunny.14 mph46%29.89 "Hg10 mi
10:00 am93 °FSunny.14 mph44%29.89 "Hg10 mi
11:00 am99 °FSunny.14 mph33%29.89 "Hg10 mi
12:00 pm100 °FPassing clouds.13 mph29%29.89 "HgN/A
1:00 pm102 °FPassing clouds.13 mph26%29.86 "HgN/A
2:00 pm102 °FPartly sunny.9 mph26%29.83 "HgN/A
3:00 pm104 °FPartly sunny.10 mph23%29.77 "HgN/A
4:00 pm104 °FPartly sunny.13 mph21%29.74 "HgN/A
5:00 pm104 °FThunderstorms. Partly sunny.12 mph20%29.74 "HgN/A
6:00 pm102 °FThunderstorms. Passing clouds.9 mph21%29.74 "Hg4 mi
7:00 pm102 °FPassing clouds.5 mph21%29.74 "Hg4 mi
8:00 pm90 °FPassing clouds.16 mph41%29.77 "Hg2 mi
9:00 pm88 °FPassing clouds.15 mph52%29.83 "Hg4 mi
10:00 pm86 °FClear.17 mph52%29.83 "Hg4 mi
11:00 pm84 °FClear.14 mph55%29.80 "Hg5 mi
Weather by CustomWeather, © 2022

See weather overview